sensor_id;sensor_type;location;lat;lon;timestamp;P1;durP1;ratioP1;P2;durP2;ratioP2
38715;SDS011;24833;49.324;8.694;2023-05-14T00:00:35;3.22;;;1.10;;
38715;SDS011;24833;49.324;8.694;2023-05-14T00:03:02;1.40;;;1.23;;
38715;SDS011;24833;49.324;8.694;2023-05-14T00:05:30;1.27;;;1.17;;
38715;SDS011;24833;49.324;8.694;2023-05-14T00:07:57;1.05;;;1.05;;
38715;SDS011;24833;49.324;8.694;2023-05-14T00:10:24;1.58;;;1.10;;
38715;SDS011;24833;49.324;8.694;2023-05-14T00:12:53;1.30;;;1.20;;
38715;SDS011;24833;49.324;8.694;2023-05-14T00:15:20;2.88;;;1.17;;
38715;SDS011;24833;49.324;8.694;2023-05-14T00:17:47;1.20;;;1.10;;
38715;SDS011;24833;49.324;8.694;2023-05-14T00:20:14;1.50;;;1.23;;
38715;SDS011;24833;49.324;8.694;2023-05-14T00:22:44;1.30;;;1.20;;
38715;SDS011;24833;49.324;8.694;2023-05-14T00:25:11;1.73;;;1.50;;
38715;SDS011;24833;49.324;8.694;2023-05-14T00:27:38;1.58;;;1.08;;
38715;SDS011;24833;49.324;8.694;2023-05-14T00:30:06;1.35;;;1.10;;
38715;SDS011;24833;49.324;8.694;2023-05-14T00:32:33;1.67;;;1.15;;
38715;SDS011;24833;49.324;8.694;2023-05-14T00:35:00;1.45;;;1.35;;
38715;SDS011;24833;49.324;8.694;2023-05-14T00:37:29;1.15;;;1.15;;
38715;SDS011;24833;49.324;8.694;2023-05-14T00:39:56;1.70;;;1.08;;
38715;SDS011;24833;49.324;8.694;2023-05-14T00:42:24;1.38;;;1.25;;
38715;SDS011;24833;49.324;8.694;2023-05-14T00:44:52;1.25;;;1.15;;
38715;SDS011;24833;49.324;8.694;2023-05-14T00:47:19;1.30;;;1.20;;
38715;SDS011;24833;49.324;8.694;2023-05-14T00:49:46;1.00;;;0.90;;
38715;SDS011;24833;49.324;8.694;2023-05-14T00:52:14;1.20;;;1.10;;
38715;SDS011;24833;49.324;8.694;2023-05-14T00:54:43;1.10;;;1.00;;
38715;SDS011;24833;49.324;8.694;2023-05-14T00:57:13;1.83;;;1.30;;
38715;SDS011;24833;49.324;8.694;2023-05-14T00:59:40;1.35;;;1.25;;
38715;SDS011;24833;49.324;8.694;2023-05-14T01:02:07;1.30;;;1.20;;
38715;SDS011;24833;49.324;8.694;2023-05-14T01:04:34;1.30;;;1.10;;
38715;SDS011;24833;49.324;8.694;2023-05-14T01:10:14;1.23;;;1.13;;
38715;SDS011;24833;49.324;8.694;2023-05-14T01:13:06;2.47;;;1.48;;
38715;SDS011;24833;49.324;8.694;2023-05-14T01:15:57;1.50;;;1.40;;
38715;SDS011;24833;49.324;8.694;2023-05-14T01:18:26;1.60;;;1.35;;
38715;SDS011;24833;49.324;8.694;2023-05-14T01:20:54;1.23;;;1.13;;
38715;SDS011;24833;49.324;8.694;2023-05-14T01:23:21;2.20;;;1.50;;
38715;SDS011;24833;49.324;8.694;2023-05-14T01:25:48;2.03;;;1.67;;
38715;SDS011;24833;49.324;8.694;2023-05-14T01:28:19;1.95;;;1.60;;
38715;SDS011;24833;49.324;8.694;2023-05-14T01:30:56;1.88;;;1.70;;
38715;SDS011;24833;49.324;8.694;2023-05-14T01:33:34;2.15;;;1.73;;
38715;SDS011;24833;49.324;8.694;2023-05-14T01:36:02;1.88;;;1.77;;
38715;SDS011;24833;49.324;8.694;2023-05-14T01:38:29;3.05;;;2.17;;
38715;SDS011;24833;49.324;8.694;2023-05-14T01:40:59;1.83;;;1.73;;
38715;SDS011;24833;49.324;8.694;2023-05-14T01:43:27;2.28;;;2.08;;
38715;SDS011;24833;49.324;8.694;2023-05-14T01:45:56;2.53;;;2.28;;
38715;SDS011;24833;49.324;8.694;2023-05-14T01:48:23;4.63;;;2.15;;
38715;SDS011;24833;49.324;8.694;2023-05-14T01:50:51;2.30;;;2.10;;
38715;SDS011;24833;49.324;8.694;2023-05-14T01:53:18;1.98;;;1.88;;
38715;SDS011;24833;49.324;8.694;2023-05-14T01:55:44;2.55;;;2.17;;
38715;SDS011;24833;49.324;8.694;2023-05-14T01:58:12;2.20;;;1.98;;
38715;SDS011;24833;49.324;8.694;2023-05-14T02:00:39;2.25;;;1.90;;
38715;SDS011;24833;49.324;8.694;2023-05-14T02:03:06;2.50;;;2.30;;
38715;SDS011;24833;49.324;8.694;2023-05-14T02:05:33;2.13;;;1.98;;
38715;SDS011;24833;49.324;8.694;2023-05-14T02:08:00;2.95;;;2.63;;
38715;SDS011;24833;49.324;8.694;2023-05-14T02:10:27;2.35;;;2.15;;
38715;SDS011;24833;49.324;8.694;2023-05-14T02:12:54;2.55;;;2.35;;
38715;SDS011;24833;49.324;8.694;2023-05-14T02:15:21;2.88;;;2.45;;
38715;SDS011;24833;49.324;8.694;2023-05-14T02:17:48;3.33;;;2.55;;
38715;SDS011;24833;49.324;8.694;2023-05-14T02:20:15;3.17;;;2.45;;
38715;SDS011;24833;49.324;8.694;2023-05-14T02:22:44;3.15;;;2.70;;
38715;SDS011;24833;49.324;8.694;2023-05-14T02:25:12;3.85;;;2.78;;
38715;SDS011;24833;49.324;8.694;2023-05-14T02:27:39;3.35;;;2.42;;
38715;SDS011;24833;49.324;8.694;2023-05-14T02:30:07;3.25;;;2.30;;
38715;SDS011;24833;49.324;8.694;2023-05-14T02:32:36;2.97;;;2.42;;
38715;SDS011;24833;49.324;8.694;2023-05-14T02:35:03;2.85;;;2.50;;
38715;SDS011;24833;49.324;8.694;2023-05-14T02:37:30;2.42;;;2.22;;
38715;SDS011;24833;49.324;8.694;2023-05-14T02:39:57;2.58;;;2.38;;
38715;SDS011;24833;49.324;8.694;2023-05-14T02:42:24;3.13;;;2.38;;
38715;SDS011;24833;49.324;8.694;2023-05-14T02:44:52;2.85;;;2.65;;
38715;SDS011;24833;49.324;8.694;2023-05-14T02:47:19;3.35;;;3.05;;
38715;SDS011;24833;49.324;8.694;2023-05-14T02:49:49;2.75;;;2.55;;
38715;SDS011;24833;49.324;8.694;2023-05-14T02:52:16;2.42;;;2.22;;
38715;SDS011;24833;49.324;8.694;2023-05-14T02:54:43;3.13;;;2.50;;
38715;SDS011;24833;49.324;8.694;2023-05-14T02:57:10;2.88;;;2.55;;
38715;SDS011;24833;49.324;8.694;2023-05-14T02:59:38;2.88;;;2.45;;
38715;SDS011;24833;49.324;8.694;2023-05-14T03:02:05;2.75;;;2.35;;
38715;SDS011;24833;49.324;8.694;2023-05-14T03:04:32;2.88;;;2.55;;
38715;SDS011;24833;49.324;8.694;2023-05-14T03:07:00;3.13;;;2.72;;
38715;SDS011;24833;49.324;8.694;2023-05-14T03:09:27;4.90;;;2.78;;
38715;SDS011;24833;49.324;8.694;2023-05-14T03:11:53;3.42;;;2.78;;
38715;SDS011;24833;49.324;8.694;2023-05-14T03:14:22;2.92;;;2.67;;
38715;SDS011;24833;49.324;8.694;2023-05-14T03:16:49;3.47;;;2.45;;
38715;SDS011;24833;49.324;8.694;2023-05-14T03:19:16;3.80;;;2.67;;
38715;SDS011;24833;49.324;8.694;2023-05-14T03:21:43;2.90;;;2.63;;
38715;SDS011;24833;49.324;8.694;2023-05-14T03:24:10;2.83;;;2.45;;
38715;SDS011;24833;49.324;8.694;2023-05-14T03:26:37;4.50;;;2.53;;
38715;SDS011;24833;49.324;8.694;2023-05-14T03:29:06;2.80;;;2.60;;
38715;SDS011;24833;49.324;8.694;2023-05-14T03:31:33;2.90;;;2.33;;
38715;SDS011;24833;49.324;8.694;2023-05-14T03:34:00;2.80;;;2.60;;
38715;SDS011;24833;49.324;8.694;2023-05-14T03:36:27;2.75;;;2.55;;
38715;SDS011;24833;49.324;8.694;2023-05-14T03:38:54;2.72;;;2.38;;
38715;SDS011;24833;49.324;8.694;2023-05-14T03:41:21;3.28;;;2.50;;
38715;SDS011;24833;49.324;8.694;2023-05-14T03:43:48;2.67;;;2.40;;
38715;SDS011;24833;49.324;8.694;2023-05-14T03:46:15;2.85;;;2.63;;
38715;SDS011;24833;49.324;8.694;2023-05-14T03:48:42;3.65;;;2.88;;
38715;SDS011;24833;49.324;8.694;2023-05-14T03:51:11;3.15;;;2.85;;
38715;SDS011;24833;49.324;8.694;2023-05-14T03:53:38;3.25;;;2.80;;
38715;SDS011;24833;49.324;8.694;2023-05-14T03:56:05;2.70;;;2.50;;
38715;SDS011;24833;49.324;8.694;2023-05-14T03:58:32;3.40;;;3.10;;
38715;SDS011;24833;49.324;8.694;2023-05-14T04:00:59;3.05;;;2.78;;
38715;SDS011;24833;49.324;8.694;2023-05-14T04:03:26;3.55;;;2.95;;
38715;SDS011;24833;49.324;8.694;2023-05-14T04:05:53;3.13;;;2.65;;
38715;SDS011;24833;49.324;8.694;2023-05-14T04:08:20;3.30;;;2.80;;
38715;SDS011;24833;49.324;8.694;2023-05-14T04:10:48;6.50;;;3.08;;
38715;SDS011;24833;49.324;8.694;2023-05-14T04:13:15;3.25;;;2.95;;
38715;SDS011;24833;49.324;8.694;2023-05-14T04:15:42;3.78;;;2.70;;
38715;SDS011;24833;49.324;8.694;2023-05-14T04:18:09;2.80;;;2.45;;
38715;SDS011;24833;49.324;8.694;2023-05-14T04:20:37;3.90;;;2.67;;
38715;SDS011;24833;49.324;8.694;2023-05-14T04:23:04;3.00;;;2.70;;
38715;SDS011;24833;49.324;8.694;2023-05-14T04:25:30;3.00;;;2.70;;
38715;SDS011;24833;49.324;8.694;2023-05-14T04:27:57;3.40;;;2.55;;
38715;SDS011;24833;49.324;8.694;2023-05-14T04:30:24;3.13;;;2.83;;
38715;SDS011;24833;49.324;8.694;2023-05-14T04:32:52;3.50;;;2.72;;
38715;SDS011;24833;49.324;8.694;2023-05-14T04:35:19;3.13;;;2.53;;
38715;SDS011;24833;49.324;8.694;2023-05-14T04:40:17;2.75;;;2.55;;
38715;SDS011;24833;49.324;8.694;2023-05-14T04:42:44;3.45;;;2.78;;
38715;SDS011;24833;49.324;8.694;2023-05-14T04:45:11;3.33;;;2.95;;
38715;SDS011;24833;49.324;8.694;2023-05-14T04:47:38;2.60;;;2.40;;
38715;SDS011;24833;49.324;8.694;2023-05-14T04:50:07;4.60;;;2.88;;
38715;SDS011;24833;49.324;8.694;2023-05-14T04:52:35;3.70;;;3.35;;
38715;SDS011;24833;49.324;8.694;2023-05-14T04:55:02;3.95;;;3.08;;
38715;SDS011;24833;49.324;8.694;2023-05-14T04:57:29;3.42;;;2.88;;
38715;SDS011;24833;49.324;8.694;2023-05-14T04:59:56;3.20;;;2.70;;
38715;SDS011;24833;49.324;8.694;2023-05-14T05:02:23;2.35;;;2.17;;
38715;SDS011;24833;49.324;8.694;2023-05-14T05:04:50;2.65;;;2.33;;
38715;SDS011;24833;49.324;8.694;2023-05-14T05:07:17;3.28;;;2.72;;
38715;SDS011;24833;49.324;8.694;2023-05-14T05:09:44;2.92;;;2.60;;
38715;SDS011;24833;49.324;8.694;2023-05-14T05:12:11;3.90;;;2.75;;
38715;SDS011;24833;49.324;8.694;2023-05-14T05:14:37;2.72;;;2.53;;
38715;SDS011;24833;49.324;8.694;2023-05-14T05:17:04;4.13;;;2.90;;
38715;SDS011;24833;49.324;8.694;2023-05-14T05:19:31;4.18;;;2.78;;
38715;SDS011;24833;49.324;8.694;2023-05-14T05:22:09;2.85;;;2.65;;
38715;SDS011;24833;49.324;8.694;2023-05-14T05:24:36;3.60;;;3.13;;
38715;SDS011;24833;49.324;8.694;2023-05-14T05:27:03;2.67;;;2.45;;
38715;SDS011;24833;49.324;8.694;2023-05-14T05:29:31;2.90;;;2.70;;
38715;SDS011;24833;49.324;8.694;2023-05-14T05:31:58;3.33;;;2.92;;
38715;SDS011;24833;49.324;8.694;2023-05-14T05:34:25;3.03;;;2.72;;
38715;SDS011;24833;49.324;8.694;2023-05-14T05:36:52;3.75;;;2.95;;
38715;SDS011;24833;49.324;8.694;2023-05-14T05:39:19;3.63;;;2.58;;
38715;SDS011;24833;49.324;8.694;2023-05-14T05:41:46;2.58;;;2.38;;
38715;SDS011;24833;49.324;8.694;2023-05-14T05:44:13;2.80;;;2.55;;
38715;SDS011;24833;49.324;8.694;2023-05-14T05:46:40;2.80;;;2.60;;
38715;SDS011;24833;49.324;8.694;2023-05-14T05:49:07;3.20;;;2.42;;
38715;SDS011;24833;49.324;8.694;2023-05-14T05:51:34;2.95;;;2.67;;
38715;SDS011;24833;49.324;8.694;2023-05-14T05:54:01;3.22;;;2.50;;
38715;SDS011;24833;49.324;8.694;2023-05-14T05:56:28;2.60;;;2.40;;
38715;SDS011;24833;49.324;8.694;2023-05-14T05:58:56;2.63;;;2.42;;
38715;SDS011;24833;49.324;8.694;2023-05-14T06:01:23;3.05;;;2.75;;
38715;SDS011;24833;49.324;8.694;2023-05-14T06:03:50;3.40;;;2.67;;
38715;SDS011;24833;49.324;8.694;2023-05-14T06:06:16;2.67;;;2.47;;
38715;SDS011;24833;49.324;8.694;2023-05-14T06:08:44;2.50;;;2.30;;
38715;SDS011;24833;49.324;8.694;2023-05-14T06:11:11;2.72;;;2.53;;
38715;SDS011;24833;49.324;8.694;2023-05-14T06:13:38;3.42;;;2.63;;
38715;SDS011;24833;49.324;8.694;2023-05-14T06:16:05;2.65;;;2.40;;
38715;SDS011;24833;49.324;8.694;2023-05-14T06:18:32;2.88;;;2.28;;
38715;SDS011;24833;49.324;8.694;2023-05-14T06:20:59;2.53;;;2.33;;
38715;SDS011;24833;49.324;8.694;2023-05-14T06:23:26;3.08;;;2.80;;
38715;SDS011;24833;49.324;8.694;2023-05-14T06:25:53;2.78;;;2.50;;
38715;SDS011;24833;49.324;8.694;2023-05-14T06:28:20;3.13;;;2.83;;
38715;SDS011;24833;49.324;8.694;2023-05-14T06:30:50;5.20;;;2.78;;
38715;SDS011;24833;49.324;8.694;2023-05-14T06:33:19;3.90;;;2.80;;
38715;SDS011;24833;49.324;8.694;2023-05-14T06:35:54;3.03;;;2.47;;
38715;SDS011;24833;49.324;8.694;2023-05-14T06:38:26;3.80;;;2.80;;
38715;SDS011;24833;49.324;8.694;2023-05-14T06:40:53;2.85;;;2.58;;
38715;SDS011;24833;49.324;8.694;2023-05-14T06:43:20;2.88;;;2.50;;
38715;SDS011;24833;49.324;8.694;2023-05-14T06:45:47;3.28;;;2.78;;
38715;SDS011;24833;49.324;8.694;2023-05-14T06:48:15;3.97;;;2.97;;
38715;SDS011;24833;49.324;8.694;2023-05-14T06:50:44;2.85;;;2.60;;
38715;SDS011;24833;49.324;8.694;2023-05-14T06:53:12;3.20;;;2.75;;
38715;SDS011;24833;49.324;8.694;2023-05-14T06:55:40;2.70;;;2.25;;
38715;SDS011;24833;49.324;8.694;2023-05-14T06:58:07;3.25;;;2.45;;
38715;SDS011;24833;49.324;8.694;2023-05-14T07:00:34;3.20;;;2.78;;
38715;SDS011;24833;49.324;8.694;2023-05-14T07:03:01;3.03;;;2.75;;
38715;SDS011;24833;49.324;8.694;2023-05-14T07:05:28;3.50;;;2.22;;
38715;SDS011;24833;49.324;8.694;2023-05-14T07:07:56;3.58;;;2.20;;
38715;SDS011;24833;49.324;8.694;2023-05-14T07:10:23;3.03;;;2.72;;
38715;SDS011;24833;49.324;8.694;2023-05-14T07:12:50;3.42;;;2.58;;
38715;SDS011;24833;49.324;8.694;2023-05-14T07:15:17;2.95;;;2.47;;
38715;SDS011;24833;49.324;8.694;2023-05-14T07:17:44;2.72;;;2.50;;
38715;SDS011;24833;49.324;8.694;2023-05-14T07:20:11;2.88;;;2.58;;
38715;SDS011;24833;49.324;8.694;2023-05-14T07:22:38;4.85;;;2.63;;
38715;SDS011;24833;49.324;8.694;2023-05-14T07:25:05;2.47;;;2.28;;
38715;SDS011;24833;49.324;8.694;2023-05-14T07:27:33;3.08;;;2.78;;
38715;SDS011;24833;49.324;8.694;2023-05-14T07:30:00;3.10;;;2.83;;
38715;SDS011;24833;49.324;8.694;2023-05-14T07:32:27;3.58;;;2.40;;
38715;SDS011;24833;49.324;8.694;2023-05-14T07:34:54;3.20;;;2.63;;
38715;SDS011;24833;49.324;8.694;2023-05-14T07:37:21;3.47;;;2.60;;
38715;SDS011;24833;49.324;8.694;2023-05-14T07:39:49;2.95;;;2.53;;
38715;SDS011;24833;49.324;8.694;2023-05-14T07:42:19;3.13;;;2.40;;
38715;SDS011;24833;49.324;8.694;2023-05-14T07:45:00;2.60;;;2.10;;
38715;SDS011;24833;49.324;8.694;2023-05-14T07:47:28;2.90;;;2.45;;
38715;SDS011;24833;49.324;8.694;2023-05-14T07:49:55;2.85;;;2.55;;
38715;SDS011;24833;49.324;8.694;2023-05-14T07:52:23;3.72;;;2.80;;
38715;SDS011;24833;49.324;8.694;2023-05-14T07:54:50;3.90;;;3.03;;
38715;SDS011;24833;49.324;8.694;2023-05-14T07:57:18;3.45;;;3.15;;
38715;SDS011;24833;49.324;8.694;2023-05-14T07:59:46;3.50;;;2.92;;
38715;SDS011;24833;49.324;8.694;2023-05-14T08:02:15;3.20;;;2.63;;
38715;SDS011;24833;49.324;8.694;2023-05-14T08:04:43;3.20;;;2.78;;
38715;SDS011;24833;49.324;8.694;2023-05-14T08:07:17;4.20;;;2.53;;
38715;SDS011;24833;49.324;8.694;2023-05-14T08:09:44;2.80;;;2.60;;
38715;SDS011;24833;49.324;8.694;2023-05-14T08:12:11;2.97;;;2.50;;
38715;SDS011;24833;49.324;8.694;2023-05-14T08:14:38;2.92;;;2.72;;
38715;SDS011;24833;49.324;8.694;2023-05-14T08:17:05;3.53;;;3.10;;
38715;SDS011;24833;49.324;8.694;2023-05-14T08:19:32;3.25;;;2.95;;
38715;SDS011;24833;49.324;8.694;2023-05-14T08:22:00;3.30;;;2.90;;
38715;SDS011;24833;49.324;8.694;2023-05-14T08:24:27;5.03;;;2.60;;
38715;SDS011;24833;49.324;8.694;2023-05-14T08:26:54;3.53;;;2.50;;
38715;SDS011;24833;49.324;8.694;2023-05-14T08:29:21;2.88;;;2.60;;
38715;SDS011;24833;49.324;8.694;2023-05-14T08:31:49;3.00;;;2.70;;
38715;SDS011;24833;49.324;8.694;2023-05-14T08:34:16;3.85;;;2.78;;
38715;SDS011;24833;49.324;8.694;2023-05-14T08:36:43;3.92;;;2.70;;
38715;SDS011;24833;49.324;8.694;2023-05-14T08:39:13;3.20;;;2.90;;
38715;SDS011;24833;49.324;8.694;2023-05-14T08:41:40;2.90;;;2.33;;
38715;SDS011;24833;49.324;8.694;2023-05-14T08:44:14;3.65;;;2.95;;
38715;SDS011;24833;49.324;8.694;2023-05-14T08:46:45;2.80;;;2.60;;
38715;SDS011;24833;49.324;8.694;2023-05-14T08:49:16;3.35;;;3.00;;
38715;SDS011;24833;49.324;8.694;2023-05-14T08:52:03;3.58;;;2.95;;
38715;SDS011;24833;49.324;8.694;2023-05-14T08:54:30;2.75;;;2.55;;
38715;SDS011;24833;49.324;8.694;2023-05-14T08:56:57;3.17;;;2.90;;
38715;SDS011;24833;49.324;8.694;2023-05-14T08:59:24;3.72;;;2.63;;
38715;SDS011;24833;49.324;8.694;2023-05-14T09:01:52;2.92;;;2.72;;
38715;SDS011;24833;49.324;8.694;2023-05-14T09:04:21;2.90;;;2.60;;
38715;SDS011;24833;49.324;8.694;2023-05-14T09:06:50;3.13;;;2.47;;
38715;SDS011;24833;49.324;8.694;2023-05-14T09:09:19;3.20;;;2.90;;
38715;SDS011;24833;49.324;8.694;2023-05-14T09:11:50;4.47;;;3.00;;
38715;SDS011;24833;49.324;8.694;2023-05-14T09:14:18;3.28;;;2.85;;
38715;SDS011;24833;49.324;8.694;2023-05-14T09:16:48;3.05;;;2.67;;
38715;SDS011;24833;49.324;8.694;2023-05-14T09:19:16;3.13;;;2.80;;
38715;SDS011;24833;49.324;8.694;2023-05-14T09:21:45;3.03;;;2.40;;
38715;SDS011;24833;49.324;8.694;2023-05-14T09:24:17;2.80;;;2.60;;
38715;SDS011;24833;49.324;8.694;2023-05-14T09:26:48;3.30;;;2.90;;
38715;SDS011;24833;49.324;8.694;2023-05-14T09:29:18;6.55;;;2.70;;
38715;SDS011;24833;49.324;8.694;2023-05-14T09:31:46;2.78;;;2.50;;
38715;SDS011;24833;49.324;8.694;2023-05-14T09:34:29;2.75;;;2.42;;
38715;SDS011;24833;49.324;8.694;2023-05-14T09:36:59;2.75;;;2.55;;
38715;SDS011;24833;49.324;8.694;2023-05-14T09:39:29;3.40;;;2.72;;
38715;SDS011;24833;49.324;8.694;2023-05-14T09:41:57;3.28;;;2.75;;
38715;SDS011;24833;49.324;8.694;2023-05-14T09:44:25;3.38;;;2.20;;
38715;SDS011;24833;49.324;8.694;2023-05-14T09:46:52;2.72;;;2.53;;
38715;SDS011;24833;49.324;8.694;2023-05-14T09:49:20;2.53;;;2.33;;
38715;SDS011;24833;49.324;8.694;2023-05-14T09:51:48;4.38;;;3.35;;
38715;SDS011;24833;49.324;8.694;2023-05-14T09:54:15;12.00;;;7.55;;
38715;SDS011;24833;49.324;8.694;2023-05-14T09:56:43;61.10;;;36.83;;
38715;SDS011;24833;49.324;8.694;2023-05-14T09:59:10;39.40;;;24.63;;
38715;SDS011;24833;49.324;8.694;2023-05-14T10:01:37;7.50;;;6.15;;
38715;SDS011;24833;49.324;8.694;2023-05-14T10:04:07;4.28;;;3.53;;
38715;SDS011;24833;49.324;8.694;2023-05-14T10:06:36;3.83;;;2.80;;
38715;SDS011;24833;49.324;8.694;2023-05-14T10:09:07;3.20;;;2.60;;
38715;SDS011;24833;49.324;8.694;2023-05-14T10:11:39;2.97;;;2.67;;
38715;SDS011;24833;49.324;8.694;2023-05-14T10:14:13;2.25;;;2.05;;
38715;SDS011;24833;49.324;8.694;2023-05-14T10:17:08;3.17;;;2.30;;
38715;SDS011;24833;49.324;8.694;2023-05-14T10:19:46;2.40;;;2.20;;
38715;SDS011;24833;49.324;8.694;2023-05-14T10:22:21;2.53;;;2.33;;
38715;SDS011;24833;49.324;8.694;2023-05-14T10:24:50;3.20;;;2.47;;
38715;SDS011;24833;49.324;8.694;2023-05-14T10:27:21;2.97;;;2.65;;
38715;SDS011;24833;49.324;8.694;2023-05-14T10:29:52;2.65;;;2.45;;
38715;SDS011;24833;49.324;8.694;2023-05-14T10:32:21;2.38;;;2.17;;
38715;SDS011;24833;49.324;8.694;2023-05-14T10:34:51;2.80;;;2.60;;
38715;SDS011;24833;49.324;8.694;2023-05-14T10:37:25;3.13;;;2.83;;
38715;SDS011;24833;49.324;8.694;2023-05-14T10:39:59;3.38;;;2.47;;
38715;SDS011;24833;49.324;8.694;2023-05-14T10:42:31;2.78;;;2.33;;
38715;SDS011;24833;49.324;8.694;2023-05-14T10:45:12;4.07;;;2.53;;
38715;SDS011;24833;49.324;8.694;2023-05-14T10:47:41;3.47;;;2.47;;
38715;SDS011;24833;49.324;8.694;2023-05-14T10:50:11;3.03;;;2.40;;
38715;SDS011;24833;49.324;8.694;2023-05-14T10:52:41;2.42;;;2.22;;
38715;SDS011;24833;49.324;8.694;2023-05-14T10:55:13;3.00;;;2.08;;
38715;SDS011;24833;49.324;8.694;2023-05-14T10:57:45;2.10;;;2.00;;
38715;SDS011;24833;49.324;8.694;2023-05-14T11:00:12;2.53;;;2.25;;
38715;SDS011;24833;49.324;8.694;2023-05-14T11:02:41;2.80;;;2.40;;
38715;SDS011;24833;49.324;8.694;2023-05-14T11:05:13;2.38;;;2.17;;
38715;SDS011;24833;49.324;8.694;2023-05-14T11:07:44;2.67;;;2.45;;
38715;SDS011;24833;49.324;8.694;2023-05-14T11:10:14;2.00;;;1.88;;
38715;SDS011;24833;49.324;8.694;2023-05-14T11:12:44;2.78;;;2.00;;
38715;SDS011;24833;49.324;8.694;2023-05-14T11:15:14;3.40;;;2.30;;
38715;SDS011;24833;49.324;8.694;2023-05-14T11:20:11;1.80;;;1.70;;
38715;SDS011;24833;49.324;8.694;2023-05-14T11:22:39;2.40;;;2.20;;
38715;SDS011;24833;49.324;8.694;2023-05-14T11:25:08;2.28;;;2.00;;
38715;SDS011;24833;49.324;8.694;2023-05-14T11:27:37;3.53;;;1.92;;
38715;SDS011;24833;49.324;8.694;2023-05-14T11:30:04;2.30;;;2.10;;
38715;SDS011;24833;49.324;8.694;2023-05-14T11:32:43;2.88;;;2.28;;
38715;SDS011;24833;49.324;8.694;2023-05-14T11:35:12;2.72;;;2.25;;
38715;SDS011;24833;49.324;8.694;2023-05-14T11:37:40;2.38;;;2.13;;
38715;SDS011;24833;49.324;8.694;2023-05-14T11:40:14;2.33;;;1.90;;
38715;SDS011;24833;49.324;8.694;2023-05-14T11:42:42;2.10;;;1.90;;
38715;SDS011;24833;49.324;8.694;2023-05-14T11:45:10;2.63;;;2.05;;
38715;SDS011;24833;49.324;8.694;2023-05-14T11:47:39;2.35;;;1.88;;
38715;SDS011;24833;49.324;8.694;2023-05-14T11:50:10;2.17;;;2.05;;
38715;SDS011;24833;49.324;8.694;2023-05-14T11:52:39;1.80;;;1.70;;
38715;SDS011;24833;49.324;8.694;2023-05-14T11:55:10;1.67;;;1.58;;
38715;SDS011;24833;49.324;8.694;2023-05-14T11:57:38;2.28;;;1.95;;
38715;SDS011;24833;49.324;8.694;2023-05-14T12:00:07;1.90;;;1.70;;
38715;SDS011;24833;49.324;8.694;2023-05-14T12:02:49;1.90;;;1.70;;
38715;SDS011;24833;49.324;8.694;2023-05-14T12:05:19;2.92;;;1.85;;
38715;SDS011;24833;49.324;8.694;2023-05-14T12:07:50;1.70;;;1.60;;
38715;SDS011;24833;49.324;8.694;2023-05-14T12:10:17;3.22;;;2.28;;
38715;SDS011;24833;49.324;8.694;2023-05-14T12:12:49;2.17;;;1.90;;
38715;SDS011;24833;49.324;8.694;2023-05-14T12:15:16;1.98;;;1.88;;
38715;SDS011;24833;49.324;8.694;2023-05-14T12:17:56;3.00;;;2.22;;
38715;SDS011;24833;49.324;8.694;2023-05-14T12:20:23;1.88;;;1.73;;
38715;SDS011;24833;49.324;8.694;2023-05-14T12:22:54;2.00;;;1.88;;
38715;SDS011;24833;49.324;8.694;2023-05-14T12:25:22;2.65;;;2.08;;
38715;SDS011;24833;49.324;8.694;2023-05-14T12:27:51;2.53;;;2.08;;
38715;SDS011;24833;49.324;8.694;2023-05-14T12:30:18;2.17;;;1.98;;
38715;SDS011;24833;49.324;8.694;2023-05-14T12:32:47;2.63;;;1.90;;
38715;SDS011;24833;49.324;8.694;2023-05-14T12:35:17;4.10;;;1.90;;
38715;SDS011;24833;49.324;8.694;2023-05-14T12:37:46;5.20;;;1.75;;
38715;SDS011;24833;49.324;8.694;2023-05-14T12:40:13;2.40;;;2.00;;
38715;SDS011;24833;49.324;8.694;2023-05-14T12:42:40;2.15;;;1.95;;
38715;SDS011;24833;49.324;8.694;2023-05-14T12:45:07;2.03;;;1.70;;
38715;SDS011;24833;49.324;8.694;2023-05-14T12:47:35;1.55;;;1.45;;
38715;SDS011;24833;49.324;8.694;2023-05-14T12:50:03;1.90;;;1.80;;
38715;SDS011;24833;49.324;8.694;2023-05-14T12:52:31;2.25;;;1.67;;
38715;SDS011;24833;49.324;8.694;2023-05-14T12:55:05;2.10;;;1.90;;
38715;SDS011;24833;49.324;8.694;2023-05-14T12:57:34;1.48;;;1.38;;
38715;SDS011;24833;49.324;8.694;2023-05-14T13:00:02;3.22;;;1.70;;
38715;SDS011;24833;49.324;8.694;2023-05-14T13:02:33;2.00;;;1.60;;
38715;SDS011;24833;49.324;8.694;2023-05-14T13:05:08;1.70;;;1.60;;
38715;SDS011;24833;49.324;8.694;2023-05-14T13:07:39;1.58;;;1.48;;
38715;SDS011;24833;49.324;8.694;2023-05-14T13:10:06;1.75;;;1.65;;
38715;SDS011;24833;49.324;8.694;2023-05-14T13:12:34;1.65;;;1.55;;
38715;SDS011;24833;49.324;8.694;2023-05-14T13:15:01;1.88;;;1.77;;
38715;SDS011;24833;49.324;8.694;2023-05-14T13:17:30;1.50;;;1.40;;
38715;SDS011;24833;49.324;8.694;2023-05-14T13:19:58;1.70;;;1.60;;
38715;SDS011;24833;49.324;8.694;2023-05-14T13:22:25;1.77;;;1.67;;
38715;SDS011;24833;49.324;8.694;2023-05-14T13:24:52;1.60;;;1.50;;
38715;SDS011;24833;49.324;8.694;2023-05-14T13:27:18;1.73;;;1.63;;
38715;SDS011;24833;49.324;8.694;2023-05-14T13:29:45;1.58;;;1.48;;
38715;SDS011;24833;49.324;8.694;2023-05-14T13:32:13;1.80;;;1.70;;
38715;SDS011;24833;49.324;8.694;2023-05-14T13:34:39;1.58;;;1.48;;
38715;SDS011;24833;49.324;8.694;2023-05-14T13:37:06;2.88;;;1.60;;
38715;SDS011;24833;49.324;8.694;2023-05-14T13:39:33;1.58;;;1.48;;
38715;SDS011;24833;49.324;8.694;2023-05-14T13:42:00;1.60;;;1.40;;
38715;SDS011;24833;49.324;8.694;2023-05-14T13:44:27;1.63;;;1.52;;
38715;SDS011;24833;49.324;8.694;2023-05-14T13:46:54;1.95;;;1.48;;
38715;SDS011;24833;49.324;8.694;2023-05-14T13:49:21;2.10;;;1.58;;
38715;SDS011;24833;49.324;8.694;2023-05-14T13:51:48;1.85;;;1.67;;
38715;SDS011;24833;49.324;8.694;2023-05-14T13:54:15;1.48;;;1.38;;
38715;SDS011;24833;49.324;8.694;2023-05-14T13:56:43;2.60;;;1.55;;
38715;SDS011;24833;49.324;8.694;2023-05-14T13:59:10;2.75;;;2.55;;
38715;SDS011;24833;49.324;8.694;2023-05-14T14:01:37;2.20;;;2.10;;
38715;SDS011;24833;49.324;8.694;2023-05-14T14:04:04;2.05;;;1.85;;
38715;SDS011;24833;49.324;8.694;2023-05-14T14:06:31;3.47;;;1.60;;
38715;SDS011;24833;49.324;8.694;2023-05-14T14:09:04;1.90;;;1.38;;
38715;SDS011;24833;49.324;8.694;2023-05-14T14:11:31;1.52;;;1.42;;
38715;SDS011;24833;49.324;8.694;2023-05-14T14:13:59;1.80;;;1.50;;
38715;SDS011;24833;49.324;8.694;2023-05-14T14:16:26;1.85;;;1.60;;
38715;SDS011;24833;49.324;8.694;2023-05-14T14:18:53;1.35;;;1.25;;
38715;SDS011;24833;49.324;8.694;2023-05-14T14:21:20;1.40;;;1.30;;
38715;SDS011;24833;49.324;8.694;2023-05-14T14:23:47;1.50;;;1.40;;
38715;SDS011;24833;49.324;8.694;2023-05-14T14:26:14;1.50;;;1.40;;
38715;SDS011;24833;49.324;8.694;2023-05-14T14:28:41;1.60;;;1.50;;
38715;SDS011;24833;49.324;8.694;2023-05-14T14:31:08;1.63;;;1.40;;
38715;SDS011;24833;49.324;8.694;2023-05-14T14:33:36;1.55;;;1.45;;
38715;SDS011;24833;49.324;8.694;2023-05-14T14:36:03;1.58;;;1.48;;
38715;SDS011;24833;49.324;8.694;2023-05-14T14:38:30;1.60;;;1.50;;
38715;SDS011;24833;49.324;8.694;2023-05-14T14:40:57;4.55;;;1.30;;
38715;SDS011;24833;49.324;8.694;2023-05-14T14:43:24;1.50;;;1.40;;
38715;SDS011;24833;49.324;8.694;2023-05-14T14:45:51;1.50;;;1.40;;
38715;SDS011;24833;49.324;8.694;2023-05-14T14:48:25;2.22;;;1.33;;
38715;SDS011;24833;49.324;8.694;2023-05-14T14:51:03;1.20;;;1.20;;
38715;SDS011;24833;49.324;8.694;2023-05-14T14:53:31;1.27;;;1.17;;
38715;SDS011;24833;49.324;8.694;2023-05-14T14:55:59;2.60;;;1.40;;
38715;SDS011;24833;49.324;8.694;2023-05-14T14:58:27;6.53;;;1.70;;
38715;SDS011;24833;49.324;8.694;2023-05-14T15:00:55;1.50;;;1.40;;
38715;SDS011;24833;49.324;8.694;2023-05-14T15:03:23;1.42;;;1.33;;